createdAt,value
2018-11-28T00:01:57.593Z,1.50
2018-11-28T00:04:25.919Z,1.50
2018-11-28T00:06:54.273Z,1.50
2018-11-28T00:09:22.615Z,1.50
2018-11-28T00:11:50.967Z,1.50
2018-11-28T00:14:19.314Z,1.50
2018-11-28T00:16:47.667Z,1.50
2018-11-28T00:19:16.007Z,1.40
2018-11-28T00:21:44.359Z,1.40
2018-11-28T00:24:12.691Z,1.40
2018-11-28T00:26:41.043Z,1.40
2018-11-28T00:29:09.374Z,1.40
2018-11-28T00:31:37.728Z,1.40
2018-11-28T00:34:06.572Z,1.40
2018-11-28T00:36:34.918Z,1.40
2018-11-28T00:39:03.374Z,1.40
2018-11-28T00:41:31.718Z,1.40
2018-11-28T00:44:00.051Z,1.40
2018-11-28T00:46:28.402Z,1.40
2018-11-28T00:48:56.743Z,1.50
2018-11-28T00:51:25.098Z,1.40
2018-11-28T00:53:54.018Z,1.50
2018-11-28T00:56:22.362Z,1.50
2018-11-28T00:58:50.703Z,1.50
2018-11-28T01:01:19.050Z,1.50
2018-11-28T01:03:47.375Z,1.50
2018-11-28T01:06:15.735Z,1.40
2018-11-28T01:08:44.068Z,1.40
2018-11-28T01:11:12.424Z,1.40
2018-11-28T01:13:40.766Z,1.40
2018-11-28T01:16:09.129Z,1.40
2018-11-28T01:18:37.475Z,1.40
2018-11-28T01:21:06.659Z,1.40
2018-11-28T01:23:34.999Z,1.40
2018-11-28T01:26:03.354Z,1.40
2018-11-28T01:28:31.718Z,1.40
2018-11-28T01:31:00.072Z,1.40
2018-11-28T01:33:28.407Z,1.40
2018-11-28T01:35:56.776Z,1.40
2018-11-28T01:38:25.098Z,1.40
2018-11-28T01:40:53.497Z,1.40
2018-11-28T01:43:21.827Z,1.40
2018-11-28T01:45:50.149Z,1.40
2018-11-28T01:48:18.504Z,1.40
2018-11-28T01:50:46.859Z,1.40
2018-11-28T01:53:15.214Z,1.40
2018-11-28T01:55:43.542Z,1.40
2018-11-28T01:58:12.083Z,1.40
2018-11-28T02:00:40.480Z,1.30
2018-11-28T02:03:08.839Z,1.30
2018-11-28T02:05:37.166Z,1.30
2018-11-28T02:08:05.543Z,1.30
2018-11-28T02:10:33.871Z,1.30
2018-11-28T02:13:02.202Z,1.30
2018-11-28T02:15:30.523Z,1.40
2018-11-28T02:17:58.874Z,1.40
2018-11-28T02:20:27.211Z,1.40
2018-11-28T02:22:55.571Z,1.40
2018-11-28T02:25:23.906Z,1.40
2018-11-28T02:27:52.250Z,1.40
2018-11-28T02:30:21.079Z,1.40
2018-11-28T02:32:49.984Z,1.40
2018-11-28T02:35:19.078Z,1.40
2018-11-28T02:37:48.134Z,1.40
2018-11-28T02:40:18.256Z,1.40
2018-11-28T02:42:47.178Z,1.40
2018-11-28T02:45:17.431Z,1.40
2018-11-28T02:47:45.831Z,1.40
2018-11-28T02:50:14.254Z,1.30
2018-11-28T02:52:42.605Z,1.30
2018-11-28T02:55:12.853Z,1.30
2018-11-28T02:57:42.164Z,1.30
2018-11-28T03:00:13.888Z,1.30
2018-11-28T03:02:42.238Z,1.30
2018-11-28T03:05:12.454Z,1.40
2018-11-28T03:07:40.872Z,1.40
2018-11-28T03:10:11.058Z,1.40
2018-11-28T03:12:39.391Z,1.40
2018-11-28T03:15:10.182Z,1.40
2018-11-28T03:17:38.615Z,1.40
2018-11-28T03:20:08.608Z,1.40
2018-11-28T03:22:36.938Z,1.40
2018-11-28T03:25:06.518Z,1.40
2018-11-28T03:27:34.881Z,1.40
2018-11-28T03:30:03.307Z,1.40
2018-11-28T03:32:31.659Z,1.40
2018-11-28T03:34:59.986Z,1.40
2018-11-28T03:37:28.334Z,1.40
2018-11-28T03:39:56.647Z,1.30
2018-11-28T03:42:25.008Z,1.30
2018-11-28T03:44:53.331Z,1.30
2018-11-28T03:47:21.708Z,1.30
2018-11-28T03:49:50.026Z,1.20
2018-11-28T03:52:18.366Z,1.20
2018-11-28T03:54:46.684Z,1.20
2018-11-28T03:57:15.026Z,1.20
2018-11-28T03:59:43.335Z,1.10
2018-11-28T04:02:11.684Z,1.10
2018-11-28T04:04:39.995Z,1.00
2018-11-28T04:07:08.350Z,1.00
2018-11-28T04:09:43.248Z,1.00
2018-11-28T04:12:11.602Z,0.90
2018-11-28T04:14:39.967Z,0.90
2018-11-28T04:17:08.400Z,0.90
2018-11-28T04:19:36.730Z,0.80
2018-11-28T04:22:05.971Z,0.80
2018-11-28T04:24:34.315Z,0.80
2018-11-28T04:27:02.777Z,0.70
2018-11-28T04:29:31.086Z,0.70
2018-11-28T04:31:59.443Z,0.60
2018-11-28T04:34:27.763Z,0.60
2018-11-28T04:36:56.139Z,0.50
2018-11-28T04:39:24.468Z,0.50
2018-11-28T04:41:52.823Z,0.50
2018-11-28T04:44:21.166Z,0.50
2018-11-28T04:46:49.524Z,0.40
2018-11-28T04:49:17.871Z,0.40
2018-11-28T04:51:46.196Z,0.40
2018-11-28T04:54:14.516Z,0.40
2018-11-28T04:56:42.850Z,0.30
2018-11-28T04:59:11.175Z,0.30
2018-11-28T05:01:39.509Z,0.30
2018-11-28T05:04:07.819Z,0.30
2018-11-28T05:07:43.344Z,0.30
2018-11-28T05:10:14.801Z,0.20
2018-11-28T05:12:44.307Z,0.20
2018-11-28T05:15:13.702Z,0.20
2018-11-28T05:17:42.185Z,0.20
2018-11-28T05:20:15.632Z,0.20
2018-11-28T05:22:43.964Z,0.10
2018-11-28T05:25:21.843Z,0.10
2018-11-28T05:27:51.131Z,0.10
2018-11-28T05:30:21.291Z,0.10
2018-11-28T05:32:49.673Z,0.10
2018-11-28T05:35:20.200Z,0.00
2018-11-28T05:37:48.661Z,0.00
2018-11-28T05:40:19.022Z,0.00
2018-11-28T05:42:47.793Z,0.00
2018-11-28T05:45:16.233Z,-0.10
2018-11-28T05:47:44.606Z,-0.10
2018-11-28T05:50:16.099Z,-0.10
2018-11-28T05:52:44.478Z,-0.10
2018-11-28T05:55:13.667Z,-0.10
2018-11-28T05:57:42.078Z,-0.10
2018-11-28T06:00:23.102Z,-0.10
2018-11-28T06:02:51.480Z,-0.10
2018-11-28T06:05:19.818Z,-0.10
2018-11-28T06:07:48.185Z,-0.20
2018-11-28T06:10:16.526Z,-0.10
2018-11-28T06:12:44.891Z,-0.10
2018-11-28T06:15:13.429Z,-0.10
2018-11-28T06:17:41.788Z,-0.20
2018-11-28T06:20:11.688Z,-0.10
2018-11-28T06:22:40.176Z,-0.10
2018-11-28T06:25:16.114Z,-0.20
2018-11-28T06:27:40.993Z,-0.10
2018-11-28T06:30:10.864Z,-0.10
2018-11-28T06:32:39.202Z,0.00
2018-11-28T06:35:08.311Z,-0.10
2018-11-28T06:37:37.027Z,-0.10
2018-11-28T06:40:10.193Z,-0.10
2018-11-28T06:42:38.570Z,-0.10
2018-11-28T06:45:09.530Z,-0.10
2018-11-28T06:47:37.886Z,-0.20
2018-11-28T06:50:08.978Z,-0.20
2018-11-28T06:52:37.339Z,-0.20
2018-11-28T06:55:07.815Z,-0.30
2018-11-28T06:57:36.171Z,-0.30
2018-11-28T07:00:08.235Z,-0.30
2018-11-28T07:02:36.646Z,-0.30
2018-11-28T07:05:05.582Z,-0.30
2018-11-28T07:07:33.935Z,-0.30
2018-11-28T07:10:02.260Z,-0.40
2018-11-28T07:12:30.622Z,-0.40
2018-11-28T07:14:58.950Z,-0.30
2018-11-28T07:17:27.330Z,-0.30
2018-11-28T07:19:55.666Z,-0.30
2018-11-28T07:22:24.010Z,-0.30
2018-11-28T07:24:52.349Z,-0.30
2018-11-28T07:27:20.694Z,-0.30
2018-11-28T07:29:49.031Z,-0.20
2018-11-28T07:32:17.400Z,-0.20
2018-11-28T07:34:45.788Z,-0.20
2018-11-28T07:37:14.151Z,-0.20
2018-11-28T07:39:42.506Z,-0.20
2018-11-28T07:42:10.869Z,-0.20
2018-11-28T07:44:39.202Z,-0.20
2018-11-28T07:47:07.570Z,-0.20
2018-11-28T07:49:44.090Z,-0.10
2018-11-28T07:52:12.571Z,-0.10
2018-11-28T07:54:40.930Z,-0.10
2018-11-28T07:57:09.286Z,-0.10
2018-11-28T07:59:37.623Z,-0.10
2018-11-28T08:02:06.027Z,0.00
2018-11-28T08:04:34.378Z,0.00
2018-11-28T08:07:02.739Z,0.00
2018-11-28T08:09:31.098Z,0.00
2018-11-28T08:11:59.446Z,0.10
2018-11-28T08:14:27.774Z,0.10
2018-11-28T08:16:56.184Z,0.10
2018-11-28T08:19:24.495Z,0.10
2018-11-28T08:21:52.847Z,0.20
2018-11-28T08:24:21.214Z,0.20
2018-11-28T08:26:49.562Z,0.20
2018-11-28T08:29:17.938Z,0.20
2018-11-28T08:31:48.459Z,0.30
2018-11-28T08:34:16.831Z,0.40
2018-11-28T08:36:45.178Z,0.50
2018-11-28T08:39:13.535Z,0.60
2018-11-28T08:41:41.897Z,0.60
2018-11-28T08:44:10.229Z,0.70
2018-11-28T08:46:45.259Z,0.70
2018-11-28T08:49:13.617Z,0.80
2018-11-28T08:51:41.934Z,0.80
2018-11-28T08:54:10.287Z,0.90
2018-11-28T08:56:38.604Z,0.90
2018-11-28T08:59:07.035Z,1.00
2018-11-28T09:01:35.362Z,1.00
2018-11-28T09:04:03.726Z,1.10
2018-11-28T09:06:32.054Z,1.10
2018-11-28T09:09:00.390Z,1.20
2018-11-28T09:11:28.706Z,1.30
2018-11-28T09:13:57.050Z,1.30
2018-11-28T09:16:25.366Z,1.40
2018-11-28T09:18:53.715Z,1.40
2018-11-28T09:21:22.047Z,1.50
2018-11-28T09:23:50.394Z,1.50
2018-11-28T09:26:18.775Z,1.60
2018-11-28T09:28:48.076Z,1.60
2018-11-28T09:31:16.814Z,1.70
2018-11-28T09:33:45.150Z,1.70
2018-11-28T09:36:13.474Z,1.80
2018-11-28T09:38:41.818Z,1.80
2018-11-28T09:41:10.144Z,1.90
2018-11-28T09:43:38.498Z,1.90
2018-11-28T09:46:06.886Z,1.90
2018-11-28T09:48:35.226Z,2.00
2018-11-28T09:51:03.556Z,2.00
2018-11-28T09:53:31.913Z,2.10
2018-11-28T09:56:00.237Z,2.10
2018-11-28T09:58:28.579Z,2.20
2018-11-28T10:00:56.899Z,2.20
2018-11-28T10:03:25.234Z,2.30
2018-11-28T10:05:53.552Z,2.30
2018-11-28T10:08:21.902Z,2.40
2018-11-28T10:10:50.341Z,2.40
2018-11-28T10:13:18.679Z,2.40
2018-11-28T10:15:47.003Z,2.50
2018-11-28T10:18:15.334Z,2.50
2018-11-28T10:20:43.654Z,2.60
2018-11-28T10:23:12.015Z,2.60
2018-11-28T10:25:40.383Z,2.70
2018-11-28T10:28:09.014Z,2.70
2018-11-28T10:30:38.454Z,2.70
2018-11-28T10:33:09.675Z,2.80
2018-11-28T10:35:38.795Z,2.80
2018-11-28T10:38:07.589Z,2.90
2018-11-28T10:40:36.561Z,2.90
2018-11-28T10:43:05.362Z,2.90
2018-11-28T10:45:33.800Z,2.90
2018-11-28T10:48:02.155Z,3.00
2018-11-28T10:50:30.523Z,3.00
2018-11-28T10:52:58.889Z,3.10
2018-11-28T10:55:27.496Z,3.10
2018-11-28T10:57:55.926Z,3.20
2018-11-28T11:00:31.965Z,3.30
2018-11-28T11:03:05.629Z,3.40
2018-11-28T11:05:39.300Z,3.40
2018-11-28T11:08:13.116Z,3.50
2018-11-28T11:10:46.904Z,3.50
2018-11-28T11:13:20.553Z,3.60
2018-11-28T11:15:56.575Z,3.60
2018-11-28T11:18:25.598Z,3.60
2018-11-28T11:20:54.023Z,3.60
2018-11-28T11:23:22.391Z,3.70
2018-11-28T11:25:51.114Z,3.70
2018-11-28T11:28:19.802Z,3.80
2018-11-28T11:30:48.276Z,3.90
2018-11-28T11:33:16.626Z,3.90
2018-11-28T11:35:44.972Z,4.00
2018-11-28T11:38:13.347Z,4.10
2018-11-28T11:40:41.687Z,4.10
2018-11-28T11:43:10.112Z,4.10
2018-11-28T11:45:39.670Z,4.20
2018-11-28T11:48:06.943Z,4.20
2018-11-28T11:50:35.559Z,4.20
2018-11-28T11:53:03.947Z,4.20
2018-11-28T11:55:32.291Z,4.30
2018-11-28T11:58:00.654Z,4.30
2018-11-28T12:00:29.024Z,4.40
2018-11-28T12:03:14.140Z,4.40
2018-11-28T12:05:45.167Z,4.40
2018-11-28T12:08:13.522Z,4.50
2018-11-28T12:10:41.877Z,4.50
2018-11-28T12:13:10.230Z,4.50
2018-11-28T12:15:38.582Z,4.60
2018-11-28T12:18:07.015Z,4.60
2018-11-28T12:20:42.927Z,4.60
2018-11-28T12:23:11.323Z,4.60
2018-11-28T12:25:39.644Z,4.60
2018-11-28T12:28:08.283Z,4.60
2018-11-28T12:30:36.726Z,4.60
2018-11-28T12:33:05.382Z,4.70
2018-11-28T12:35:33.749Z,4.60
2018-11-28T12:38:02.394Z,4.60
2018-11-28T12:40:31.890Z,4.60
2018-11-28T12:43:00.598Z,4.60
2018-11-28T12:45:28.982Z,4.60
2018-11-28T12:47:57.431Z,4.60
2018-11-28T12:50:28.008Z,4.60
2018-11-28T12:52:57.757Z,4.60
2018-11-28T12:55:26.127Z,4.60
2018-11-28T12:57:55.415Z,4.60
2018-11-28T13:00:25.093Z,4.60
2018-11-28T13:02:53.808Z,4.60
2018-11-28T13:05:23.375Z,4.50
2018-11-28T13:07:51.742Z,4.50
2018-11-28T13:10:28.238Z,4.50
2018-11-28T13:12:56.666Z,4.50
2018-11-28T13:15:25.938Z,4.50
2018-11-28T13:17:54.307Z,4.50
2018-11-28T13:20:22.821Z,4.50
2018-11-28T13:22:52.322Z,4.50
2018-11-28T13:25:24.898Z,4.50
2018-11-28T13:27:53.310Z,4.50
2018-11-28T13:30:22.493Z,4.50
2018-11-28T13:32:51.426Z,4.50
2018-11-28T13:35:22.803Z,4.60
2018-11-28T13:37:52.314Z,4.60
2018-11-28T13:40:20.962Z,4.60
2018-11-28T13:42:49.362Z,4.60
2018-11-28T13:45:20.611Z,4.60
2018-11-28T13:47:50.138Z,4.60
2018-11-28T13:50:18.495Z,4.70
2018-11-28T13:52:46.893Z,4.70
2018-11-28T13:55:39.631Z,4.70
2018-11-28T13:57:50.590Z,4.70
2018-11-28T14:00:18.962Z,4.70
2018-11-28T14:02:47.294Z,4.80
2018-11-28T14:05:15.622Z,4.80
2018-11-28T14:07:44.019Z,4.80
2018-11-28T14:10:13.423Z,4.80
2018-11-28T14:12:41.762Z,4.80
2018-11-28T14:15:15.034Z,4.80
2018-11-28T14:17:46.934Z,4.90
2018-11-28T14:20:15.287Z,4.90
2018-11-28T14:22:43.607Z,4.90
2018-11-28T14:25:13.043Z,4.90
2018-11-28T14:27:41.688Z,4.90
2018-11-28T14:30:12.894Z,4.90
2018-11-28T14:32:41.222Z,4.80
2018-11-28T14:35:10.681Z,4.80
2018-11-28T14:37:39.038Z,4.80
2018-11-28T14:40:10.435Z,4.80
2018-11-28T14:42:38.787Z,4.70
2018-11-28T14:45:12.602Z,4.70
2018-11-28T14:47:41.530Z,4.70
2018-11-28T14:50:15.114Z,4.70
2018-11-28T14:52:43.631Z,4.60
2018-11-28T14:55:15.087Z,4.60
2018-11-28T14:57:43.498Z,4.60
2018-11-28T15:00:13.678Z,4.60
2018-11-28T15:02:42.006Z,4.60
2018-11-28T15:06:16.819Z,4.50
2018-11-28T15:08:45.138Z,4.50
2018-11-28T15:11:14.278Z,4.50
2018-11-28T15:13:43.306Z,4.50
2018-11-28T15:16:11.681Z,4.50
2018-11-28T15:18:40.133Z,4.50
2018-11-28T15:21:10.471Z,4.40
2018-11-28T15:23:39.339Z,4.40
2018-11-28T15:26:07.734Z,4.40
2018-11-28T15:28:36.047Z,4.40
2018-11-28T15:31:04.462Z,4.40
2018-11-28T15:33:32.825Z,4.30
2018-11-28T15:36:01.167Z,4.30
2018-11-28T15:38:29.524Z,4.30
2018-11-28T15:40:58.916Z,4.20
2018-11-28T15:43:27.288Z,4.20
2018-11-28T15:45:55.654Z,4.20
2018-11-28T15:48:23.982Z,4.20
2018-11-28T15:50:52.359Z,4.20
2018-11-28T15:53:20.778Z,4.20
2018-11-28T15:55:49.149Z,4.10
2018-11-28T15:58:17.529Z,4.10
2018-11-28T16:00:45.927Z,4.10
2018-11-28T16:03:14.277Z,4.20
2018-11-28T16:05:42.629Z,4.20
2018-11-28T16:08:11.006Z,4.20
2018-11-28T16:10:41.548Z,4.20
2018-11-28T16:13:10.054Z,4.10
2018-11-28T16:15:46.434Z,4.00
2018-11-28T16:18:14.883Z,4.00
2018-11-28T16:20:43.230Z,3.90
2018-11-28T16:25:46.238Z,3.80
2018-11-28T16:28:14.585Z,3.70
2018-11-28T16:30:43.054Z,3.70
2018-11-28T16:33:11.388Z,3.70
2018-11-28T16:35:39.746Z,3.60
2018-11-28T16:38:08.179Z,3.60
2018-11-28T16:40:36.568Z,3.50
2018-11-28T16:43:05.292Z,3.50
2018-11-28T16:45:33.635Z,3.40
2018-11-28T16:48:01.970Z,3.40
2018-11-28T16:50:30.335Z,3.40
2018-11-28T16:52:58.659Z,3.40
2018-11-28T16:55:27.039Z,3.40
2018-11-28T16:57:55.725Z,3.40
2018-11-28T17:00:27.091Z,3.30
2018-11-28T17:02:56.066Z,3.30
2018-11-28T17:05:24.485Z,3.20
2018-11-28T17:07:53.330Z,3.30
2018-11-28T17:10:22.958Z,3.30
2018-11-28T17:12:51.825Z,3.20
2018-11-28T17:15:20.514Z,3.20
2018-11-28T17:17:48.909Z,3.20
2018-11-28T17:20:20.970Z,3.10
2018-11-28T17:22:50.256Z,3.10
2018-11-28T17:25:26.483Z,3.10
2018-11-28T17:27:54.846Z,3.10
2018-11-28T17:30:25.992Z,3.10
2018-11-28T17:32:54.697Z,3.00
2018-11-28T17:35:22.766Z,3.00
2018-11-28T17:37:51.433Z,3.00
2018-11-28T17:40:21.044Z,3.00
2018-11-28T17:42:50.616Z,2.90
2018-11-28T17:45:19.335Z,2.90
2018-11-28T17:47:47.738Z,2.90
2018-11-28T17:50:18.038Z,2.90
2018-11-28T17:52:52.179Z,2.90
2018-11-28T17:55:20.535Z,2.90
2018-11-28T17:57:48.902Z,2.80
2018-11-28T18:00:19.001Z,2.80
2018-11-28T18:02:47.439Z,2.90
2018-11-28T18:05:15.770Z,2.90
2018-11-28T18:07:44.121Z,2.90
2018-11-28T18:10:14.830Z,2.90
2018-11-28T18:12:54.557Z,2.80
2018-11-28T18:15:23.129Z,2.80
2018-11-28T18:17:52.327Z,2.80
2018-11-28T18:20:20.718Z,2.80
2018-11-28T18:22:49.055Z,2.70
2018-11-28T18:25:17.394Z,2.70
2018-11-28T18:27:45.742Z,2.70
2018-11-28T18:30:14.187Z,2.70
2018-11-28T18:32:42.535Z,2.60
2018-11-28T18:35:11.502Z,2.60
2018-11-28T18:37:39.863Z,2.60
2018-11-28T18:40:10.423Z,2.50
2018-11-28T18:42:38.902Z,2.50
2018-11-28T18:45:24.293Z,2.50
2018-11-28T18:47:52.650Z,2.50
2018-11-28T18:50:21.050Z,2.40
2018-11-28T18:52:49.369Z,2.40
2018-11-28T18:55:18.939Z,2.40
2018-11-28T18:57:49.455Z,2.30
2018-11-28T19:00:21.122Z,2.30
2018-11-28T19:02:49.515Z,2.30
2018-11-28T19:05:17.898Z,2.30
2018-11-28T19:07:46.712Z,2.30
2018-11-28T19:10:16.575Z,2.30
2018-11-28T19:12:44.967Z,2.30
2018-11-28T19:15:14.470Z,2.30
2018-11-28T19:17:43.071Z,2.30
2018-11-28T19:20:12.614Z,2.20
2018-11-28T19:22:41.035Z,2.10
2018-11-28T19:25:13.618Z,2.10
2018-11-28T19:27:42.046Z,2.00
2018-11-28T19:30:11.815Z,1.90
2018-11-28T19:32:40.368Z,1.80
2018-11-28T19:35:10.114Z,1.80
2018-11-28T19:37:38.750Z,1.80
2018-11-28T19:40:26.227Z,1.70
2018-11-28T19:42:54.682Z,1.70
2018-11-28T19:45:23.195Z,1.60
2018-11-28T19:47:51.546Z,1.60
2018-11-28T19:50:25.562Z,1.50
2018-11-28T19:52:53.963Z,1.50
2018-11-28T19:55:22.340Z,1.50
2018-11-28T19:57:50.659Z,1.50
2018-11-28T20:00:24.006Z,1.50
2018-11-28T20:02:52.330Z,1.50
2018-11-28T20:05:20.718Z,1.60
2018-11-28T20:07:50.158Z,1.60
2018-11-28T20:10:19.543Z,1.70
2018-11-28T20:12:47.968Z,1.70
2018-11-28T20:15:19.602Z,1.80
2018-11-28T20:17:48.070Z,1.80
2018-11-28T20:20:16.678Z,1.90
2018-11-28T20:22:45.039Z,1.90
2018-11-28T20:25:15.578Z,1.90
2018-11-28T20:27:45.413Z,2.00
2018-11-28T20:30:18.226Z,2.00
2018-11-28T20:32:46.646Z,2.00
2018-11-28T20:35:15.004Z,2.10
2018-11-28T20:37:43.390Z,2.10
2018-11-28T20:40:13.958Z,2.10
2018-11-28T20:42:43.730Z,2.10
2018-11-28T20:45:12.442Z,2.10
2018-11-28T20:47:40.799Z,2.10
2018-11-28T20:50:10.837Z,2.30
2018-11-28T20:52:39.530Z,2.40
2018-11-28T20:55:09.483Z,2.40
2018-11-28T20:57:37.842Z,2.40
2018-11-28T21:00:17.710Z,2.40
2018-11-28T21:02:46.072Z,2.30
2018-11-28T21:05:14.400Z,2.30
2018-11-28T21:07:42.780Z,2.20
2018-11-28T21:10:24.340Z,2.20
2018-11-28T21:12:52.794Z,2.20
2018-11-28T21:15:21.163Z,2.20
2018-11-28T21:17:49.602Z,2.20
2018-11-28T21:20:18.964Z,2.20
2018-11-28T21:22:53.410Z,2.20
2018-11-28T21:25:21.776Z,2.10
2018-11-28T21:27:50.162Z,2.10
2018-11-28T21:30:19.608Z,2.10
2018-11-28T21:32:48.766Z,2.10
2018-11-28T21:35:19.647Z,2.10
2018-11-28T21:37:48.024Z,2.10
2018-11-28T21:40:16.374Z,2.20
2018-11-28T21:42:44.728Z,2.20
2018-11-28T21:45:15.047Z,2.20
2018-11-28T21:47:43.391Z,2.30
2018-11-28T21:50:15.826Z,2.20
2018-11-28T21:52:44.230Z,2.30
2018-11-28T21:55:15.773Z,2.30
2018-11-28T21:57:44.154Z,2.30
2018-11-28T22:00:27.659Z,2.30
2018-11-28T22:02:56.032Z,2.30
2018-11-28T22:05:24.787Z,2.30
2018-11-28T22:07:53.141Z,2.40
2018-11-28T22:10:25.160Z,2.30
2018-11-28T22:12:54.246Z,2.30
2018-11-28T22:15:22.626Z,2.20
2018-11-28T22:17:53.002Z,2.20
2018-11-28T22:20:21.411Z,2.20
2018-11-28T22:22:49.835Z,2.20
2018-11-28T22:25:19.206Z,2.10
2018-11-28T22:27:47.598Z,2.10
2018-11-28T22:30:17.850Z,2.10
2018-11-28T22:32:46.235Z,2.10
2018-11-28T22:35:14.555Z,2.20
2018-11-28T22:37:42.934Z,2.30
2018-11-28T22:40:19.378Z,2.30
2018-11-28T22:42:47.729Z,2.30
2018-11-28T22:45:18.183Z,2.40
2018-11-28T22:47:46.537Z,2.40
2018-11-28T22:50:14.980Z,2.40
2018-11-28T22:52:43.343Z,2.50
2018-11-28T22:55:12.550Z,2.50
2018-11-28T22:57:40.962Z,2.50
2018-11-28T23:00:28.459Z,2.50
2018-11-28T23:02:58.537Z,2.40
2018-11-28T23:05:35.615Z,2.30
2018-11-28T23:08:05.282Z,2.30
2018-11-28T23:10:33.666Z,2.20
2018-11-28T23:13:02.002Z,2.20
2018-11-28T23:15:30.340Z,2.20
2018-11-28T23:17:59.561Z,2.20
2018-11-28T23:20:27.889Z,2.20
2018-11-28T23:22:56.250Z,2.10
2018-11-28T23:25:24.626Z,2.10
2018-11-28T23:27:53.022Z,2.10
2018-11-28T23:30:21.978Z,2.10
2018-11-28T23:32:51.078Z,2.00
2018-11-28T23:35:19.498Z,2.00
2018-11-28T23:37:48.707Z,2.00
2018-11-28T23:40:25.688Z,2.00
2018-11-28T23:42:54.782Z,1.90
2018-11-28T23:45:23.353Z,1.90
2018-11-28T23:47:51.762Z,1.90
2018-11-28T23:50:21.893Z,1.90
2018-11-28T23:52:50.962Z,1.90
2018-11-28T23:55:23.024Z,1.90
2018-11-28T23:57:51.682Z,2.00
